createdAt,value
2019-05-01T00:02:13.594Z,24
2019-05-01T00:05:19.779Z,24
2019-05-01T00:08:26.055Z,24
2019-05-01T00:11:32.262Z,24
2019-05-01T00:14:38.491Z,24
2019-05-01T00:17:44.638Z,24
2019-05-01T00:20:50.996Z,24
2019-05-01T00:23:57.246Z,24
2019-05-01T00:27:03.612Z,23.9
2019-05-01T00:30:09.707Z,23.9
2019-05-01T00:33:15.914Z,23.9
2019-05-01T00:36:22.098Z,23.9
2019-05-01T00:39:28.278Z,23.9
2019-05-01T00:42:34.470Z,23.9
2019-05-01T00:45:40.651Z,23.8
2019-05-01T00:48:46.801Z,23.8
2019-05-01T00:51:52.990Z,23.8
2019-05-01T00:54:59.168Z,23.8
2019-05-01T00:58:05.336Z,23.8
2019-05-01T01:01:11.451Z,23.8
2019-05-01T01:04:17.693Z,23.8
2019-05-01T01:07:23.901Z,23.7
2019-05-01T01:10:30.119Z,23.7
2019-05-01T01:13:36.464Z,23.7
2019-05-01T01:16:42.628Z,23.7
2019-05-01T01:19:48.751Z,23.7
2019-05-01T01:22:55.006Z,23.7
2019-05-01T01:26:01.287Z,23.7
2019-05-01T01:29:07.438Z,23.7
2019-05-01T01:32:13.667Z,23.7
2019-05-01T01:35:19.822Z,23.7
2019-05-01T01:38:26.060Z,23.7
2019-05-01T01:41:32.262Z,23.6
2019-05-01T01:44:38.586Z,23.7
2019-05-01T01:47:44.786Z,23.6
2019-05-01T01:50:50.894Z,23.6
2019-05-01T01:53:57.093Z,23.6
2019-05-01T01:57:03.407Z,23.6
2019-05-01T02:00:09.611Z,23.6
2019-05-01T02:03:15.800Z,23.5
2019-05-01T02:06:22.027Z,23.5
2019-05-01T02:09:28.276Z,23.5
2019-05-01T02:12:34.525Z,23.5
2019-05-01T02:15:40.922Z,23.5
2019-05-01T02:18:47.156Z,23.5
2019-05-01T02:21:53.329Z,23.5
2019-05-01T02:25:02.314Z,23.4
2019-05-01T02:28:08.510Z,23.4
2019-05-01T02:31:26.787Z,23.4
2019-05-01T02:34:35.243Z,23.4
2019-05-01T02:37:41.458Z,23.4
2019-05-01T02:40:47.717Z,23.4
2019-05-01T02:43:53.983Z,23.4
2019-05-01T02:47:00.150Z,23.4
2019-05-01T02:50:06.294Z,23.3
2019-05-01T02:53:12.642Z,23.3
2019-05-01T02:56:18.792Z,23.3
2019-05-01T02:59:25.000Z,23.3
2019-05-01T03:02:31.168Z,23.3
2019-05-01T03:05:37.294Z,23.3
2019-05-01T03:08:43.503Z,23.3
2019-05-01T03:11:49.659Z,23.3
2019-05-01T03:14:55.820Z,23.3
2019-05-01T03:18:02.028Z,23.3
2019-05-01T03:21:08.280Z,23.2
2019-05-01T03:24:14.571Z,23.2
2019-05-01T03:27:20.791Z,23.2
2019-05-01T03:30:27.892Z,23.2
2019-05-01T03:33:34.240Z,23.2
2019-05-01T03:36:40.565Z,23.2
2019-05-01T03:39:46.775Z,23.1
2019-05-01T03:42:55.748Z,23.2
2019-05-01T03:46:01.914Z,23.2
2019-05-01T03:49:08.155Z,23.1
2019-05-01T03:52:14.439Z,23.1
2019-05-01T03:55:20.618Z,23.1
2019-05-01T03:58:26.848Z,23.1
2019-05-01T04:01:33.113Z,23.1
2019-05-01T04:04:39.548Z,23.1
2019-05-01T04:07:45.896Z,23.1
2019-05-01T04:10:52.121Z,23.1
2019-05-01T04:13:58.374Z,23.2
2019-05-01T04:17:04.591Z,23.4
2019-05-01T04:20:10.764Z,23.6
2019-05-01T04:23:16.966Z,23.6
2019-05-01T04:26:23.156Z,23.8
2019-05-01T04:29:29.455Z,23.9
2019-05-01T04:32:50.743Z,24
2019-05-01T04:35:59.030Z,24.2
2019-05-01T04:39:05.237Z,24.3
2019-05-01T04:42:11.496Z,24.3
2019-05-01T04:45:17.740Z,24.2
2019-05-01T04:48:24.028Z,24.2
2019-05-01T04:51:30.233Z,24.3
2019-05-01T04:54:36.487Z,24.2
2019-05-01T04:57:42.688Z,24.2
2019-05-01T05:00:48.862Z,24.1
2019-05-01T05:03:55.138Z,24.1
2019-05-01T05:07:01.344Z,24.1
2019-05-01T05:10:07.566Z,24.1
2019-05-01T05:13:13.783Z,24.1
2019-05-01T05:16:19.952Z,24
2019-05-01T05:19:26.147Z,24
2019-05-01T05:22:32.402Z,24
2019-05-01T05:25:38.587Z,24
2019-05-01T05:28:44.766Z,23.9
2019-05-01T05:31:51.034Z,23.9
2019-05-01T05:34:57.336Z,24
2019-05-01T05:38:03.567Z,23.9
2019-05-01T05:41:09.770Z,23.9
2019-05-01T05:44:15.934Z,23.9
2019-05-01T09:46:36.528Z,24.3
2019-05-01T09:49:42.612Z,24.6
2019-05-01T09:52:59.696Z,24.7
2019-05-01T09:56:07.630Z,24.8
2019-05-01T09:59:19.091Z,24.9
2019-05-01T10:02:25.352Z,25
2019-05-01T10:05:31.558Z,25.1
2019-05-01T10:08:46.896Z,25.2
2019-05-01T10:11:53.144Z,25.3
2019-05-01T10:14:59.410Z,25.3
2019-05-01T10:18:05.664Z,25.4
2019-05-01T10:21:11.921Z,25.3
2019-05-01T10:24:18.136Z,25.4
2019-05-01T10:27:24.503Z,25.4
2019-05-01T10:30:40.478Z,25.5
2019-05-01T10:33:46.749Z,25.5
2019-05-01T10:36:54.437Z,25.5
2019-05-01T10:40:01.617Z,25.5
2019-05-01T10:43:07.911Z,25.5
2019-05-01T10:46:14.169Z,25.6
2019-05-01T10:49:23.197Z,25.6
2019-05-01T10:52:29.370Z,25.6
2019-05-01T10:55:35.591Z,25.7
2019-05-01T10:58:41.806Z,25.7
2019-05-01T11:01:47.978Z,25.7
2019-05-01T11:04:56.886Z,25.8
2019-05-01T11:08:03.178Z,25.8
2019-05-01T11:11:09.301Z,25.8
2019-05-01T11:14:15.492Z,25.8
2019-05-01T11:17:21.690Z,25.9
2019-05-01T11:20:27.886Z,25.9
2019-05-01T11:23:34.263Z,25.9
2019-05-01T11:26:40.495Z,25.9
2019-05-01T11:29:46.830Z,25.9
2019-05-01T11:32:52.962Z,26
2019-05-01T11:36:09.134Z,26
2019-05-01T11:39:15.849Z,26
2019-05-01T11:42:22.029Z,26
2019-05-01T11:45:28.137Z,26
2019-05-01T11:48:34.300Z,26
2019-05-01T11:51:40.683Z,26
2019-05-01T11:54:46.965Z,26
2019-05-01T11:57:53.328Z,26
2019-05-01T12:00:59.508Z,26
2019-05-01T12:04:05.695Z,25.9
2019-05-01T12:07:11.879Z,25.7
2019-05-01T12:10:18.146Z,25.6
2019-05-01T12:13:24.379Z,25.6
2019-05-01T12:16:30.675Z,25.5
2019-05-01T12:19:36.850Z,25.5
2019-05-01T12:22:43.008Z,25.5
2019-05-01T12:25:55.370Z,25.5
2019-05-01T12:29:01.637Z,25.5
2019-05-01T12:32:07.810Z,25.5
2019-05-01T12:35:13.993Z,25.5
2019-05-01T12:38:20.186Z,25.5
2019-05-01T12:41:26.310Z,25.5
2019-05-01T12:44:32.567Z,25.5
2019-05-01T12:47:38.848Z,25.6
2019-05-01T12:50:45.002Z,25.6
2019-05-01T12:53:51.166Z,25.7
2019-05-01T12:56:57.431Z,25.7
2019-05-01T13:00:08.634Z,25.7
2019-05-01T13:03:15.223Z,25.7
2019-05-01T13:06:21.450Z,25.8
2019-05-01T13:09:27.616Z,25.8
2019-05-01T13:12:36.460Z,25.8
2019-05-01T13:15:42.698Z,25.8
2019-05-01T13:18:51.802Z,25.8
2019-05-01T13:21:58.114Z,25.8
2019-05-01T13:25:04.338Z,25.9
2019-05-01T13:28:10.442Z,25.9
2019-05-01T13:31:16.631Z,25.9
2019-05-01T13:34:22.773Z,25.9
2019-05-01T13:37:28.998Z,25.9
2019-05-01T13:40:35.207Z,25.9
2019-05-01T13:43:41.366Z,26
2019-05-01T13:46:47.541Z,26
2019-05-01T13:49:53.805Z,26
2019-05-01T13:53:00.064Z,26
2019-05-01T13:56:06.299Z,26
2019-05-01T13:59:12.394Z,26
2019-05-01T14:02:18.695Z,26
2019-05-01T14:05:24.921Z,26
2019-05-01T14:08:31.143Z,26
2019-05-01T14:11:37.237Z,26
2019-05-01T14:14:43.425Z,26
2019-05-01T14:17:49.631Z,26.1
2019-05-01T14:20:55.756Z,26.1
2019-05-01T14:24:01.944Z,26.1
2019-05-01T14:27:08.187Z,26.1
2019-05-01T14:30:14.579Z,26.1
2019-05-01T14:33:20.762Z,26.1
2019-05-01T14:36:27.269Z,26.1
2019-05-01T14:39:33.529Z,26.1
2019-05-01T14:42:39.822Z,26.1
2019-05-01T14:45:46.107Z,26.1
2019-05-01T14:48:52.361Z,26.1
2019-05-01T14:51:58.531Z,26.1
2019-05-01T14:55:04.801Z,26.1
2019-05-01T14:58:10.980Z,26.1
2019-05-01T15:01:17.134Z,26.1
2019-05-01T15:04:23.514Z,26.1
2019-05-01T15:07:42.065Z,26.1
2019-05-01T15:10:49.900Z,26.1
2019-05-01T15:13:56.085Z,26.1
2019-05-01T15:17:02.375Z,26
2019-05-01T15:20:11.058Z,26
2019-05-01T15:23:17.246Z,26
2019-05-01T15:26:23.506Z,26
2019-05-01T15:29:29.809Z,26
2019-05-01T15:32:36.098Z,26
2019-05-01T15:35:42.248Z,25.9
2019-05-01T15:38:48.433Z,25.9
2019-05-01T15:41:54.670Z,25.9
2019-05-01T15:45:00.934Z,25.9
2019-05-01T15:48:07.148Z,25.8
2019-05-01T15:51:13.266Z,25.8
2019-05-01T15:54:19.448Z,25.8
2019-05-01T15:57:25.673Z,25.8
2019-05-01T16:00:31.977Z,25.8
2019-05-01T16:03:38.254Z,25.8
2019-05-01T16:06:44.408Z,25.8
2019-05-01T16:09:50.629Z,25.8
2019-05-01T16:12:56.806Z,25.7
2019-05-01T16:16:02.987Z,25.7
2019-05-01T16:19:09.357Z,25.7
2019-05-01T16:22:15.526Z,25.7
2019-05-01T16:25:21.759Z,25.7
2019-05-01T16:28:27.855Z,25.7
2019-05-01T16:31:34.058Z,25.7
2019-05-01T16:34:43.019Z,25.6
2019-05-01T16:37:49.133Z,25.6
2019-05-01T16:40:55.366Z,25.6
2019-05-01T16:44:01.570Z,25.6
2019-05-01T16:47:07.785Z,25.6
2019-05-01T16:50:13.997Z,25.6
2019-05-01T16:53:20.179Z,25.5
2019-05-01T16:56:26.448Z,25.5
2019-05-01T16:59:36.303Z,25.5
2019-05-01T17:02:42.458Z,25.5
2019-05-01T17:05:48.620Z,25.5
2019-05-01T17:08:54.923Z,25.5
2019-05-01T17:12:01.091Z,25.5
2019-05-01T17:15:07.251Z,25.5
2019-05-01T17:18:13.457Z,25.5
2019-05-01T17:21:19.675Z,25.4
2019-05-01T17:24:25.891Z,25.4
2019-05-01T17:27:32.133Z,25.4
2019-05-01T17:30:38.405Z,25.4
2019-05-01T17:33:44.774Z,25.4
2019-05-01T17:36:59.571Z,25.4
2019-05-01T17:40:05.810Z,25.3
2019-05-01T17:43:13.261Z,25.3
2019-05-01T17:46:21.138Z,25.3
2019-05-01T17:49:27.429Z,25.3
2019-05-01T17:52:33.694Z,25.3
2019-05-01T17:55:39.973Z,25.3
2019-05-01T17:58:46.108Z,25.2
2019-05-01T18:01:52.275Z,25.2
2019-05-01T18:04:58.531Z,25.2
2019-05-01T18:08:04.708Z,25.2
2019-05-01T18:11:14.086Z,25.1
2019-05-01T18:14:21.629Z,25.1
2019-05-01T18:17:27.803Z,25.1
2019-05-01T18:20:33.993Z,25.1
2019-05-01T18:23:42.727Z,25.1
2019-05-01T18:26:57.661Z,25.1
2019-05-01T18:30:03.837Z,25
2019-05-01T18:33:10.085Z,25
2019-05-01T18:36:19.819Z,25
2019-05-01T18:39:30.791Z,25
2019-05-01T18:42:36.995Z,25
2019-05-01T18:45:43.176Z,25
2019-05-01T18:48:49.523Z,25
2019-05-01T18:51:55.741Z,24.9
2019-05-01T18:55:01.859Z,25
2019-05-01T18:58:08.037Z,24.9
2019-05-01T19:01:14.175Z,24.9
2019-05-01T19:04:23.441Z,24.9
2019-05-01T19:07:30.349Z,24.9
2019-05-01T19:10:36.515Z,24.9
2019-05-01T19:13:42.620Z,24.9
2019-05-01T19:16:48.866Z,24.9
2019-05-01T19:19:55.206Z,24.8
2019-05-01T19:23:01.394Z,24.8
2019-05-01T19:26:07.664Z,24.8
2019-05-01T19:29:13.964Z,24.8
2019-05-01T19:32:20.261Z,24.8
2019-05-01T19:35:28.891Z,24.8
2019-05-01T19:38:39.963Z,24.8
2019-05-01T19:41:48.962Z,24.7
2019-05-01T19:44:59.660Z,24.7
2019-05-01T19:48:05.959Z,24.7
2019-05-01T19:51:12.231Z,24.7
2019-05-01T19:54:23.001Z,24.7
2019-05-01T19:57:35.608Z,24.7
2019-05-01T20:00:41.785Z,24.7
2019-05-01T20:03:48.056Z,24.6
2019-05-01T20:06:54.552Z,24.6
2019-05-01T20:10:00.846Z,24.6
2019-05-01T20:13:11.808Z,24.6
2019-05-01T20:16:19.019Z,24.6
2019-05-01T20:19:25.195Z,24.6
2019-05-01T20:22:31.322Z,24.6
2019-05-01T20:25:37.492Z,24.5
2019-05-01T20:28:43.703Z,24.5
2019-05-01T20:31:52.302Z,24.5
2019-05-01T20:34:59.392Z,24.5
2019-05-01T20:38:05.761Z,24.5
2019-05-01T20:41:15.731Z,24.5
2019-05-01T20:44:25.788Z,24.5
2019-05-01T20:47:35.121Z,24.5
2019-05-01T20:50:55.128Z,24.5
2019-05-01T20:54:01.234Z,24.4
2019-05-01T20:57:07.566Z,24.4
2019-05-01T21:00:25.465Z,24.4
2019-05-01T21:03:31.614Z,24.4
2019-05-01T21:06:38.973Z,24.4
2019-05-01T21:09:56.732Z,24.4
2019-05-01T21:13:04.759Z,24.4
2019-05-01T21:16:10.908Z,24.4
2019-05-01T21:19:17.076Z,24.4
2019-05-01T21:22:23.507Z,24.3
2019-05-01T21:25:29.710Z,24.3
2019-05-01T21:28:35.917Z,24.3
2019-05-01T21:31:43.821Z,24.3
2019-05-01T21:34:50.186Z,24.3
2019-05-01T21:37:58.139Z,24.3
2019-05-01T21:41:04.355Z,24.3
2019-05-01T21:44:10.508Z,24.3
2019-05-01T21:47:18.866Z,24.2
2019-05-01T21:50:26.705Z,24.2
2019-05-01T21:53:33.011Z,24.2
2019-05-01T21:56:51.574Z,24.2
2019-05-01T21:59:57.750Z,24.2
2019-05-01T22:03:03.906Z,24.2
2019-05-01T22:06:11.135Z,24.2
2019-05-01T22:09:22.358Z,24.2
2019-05-01T22:12:28.581Z,24.2
2019-05-01T22:15:34.764Z,24.1
2019-05-01T22:18:41.022Z,24.1
2019-05-01T22:21:47.211Z,24.1
2019-05-01T22:24:53.383Z,24.1
2019-05-01T22:27:59.634Z,24.1
2019-05-01T22:31:05.790Z,24.1
2019-05-01T22:34:12.009Z,24.1
2019-05-01T22:37:18.189Z,24.1
2019-05-01T22:40:24.383Z,24.1
2019-05-01T22:43:30.650Z,24
2019-05-01T22:46:38.926Z,24
2019-05-01T22:49:46.484Z,24
2019-05-01T22:52:52.748Z,24
2019-05-01T22:56:02.193Z,24
2019-05-01T22:59:09.766Z,24
2019-05-01T23:02:16.010Z,24
2019-05-01T23:05:22.984Z,24
2019-05-01T23:08:34.601Z,24
2019-05-01T23:11:40.784Z,23.9
2019-05-01T23:14:47.101Z,23.9
2019-05-01T23:17:53.277Z,23.9
2019-05-01T23:20:59.507Z,23.9
2019-05-01T23:24:05.730Z,23.9
2019-05-01T23:27:11.984Z,23.9
2019-05-01T23:30:18.237Z,23.9
2019-05-01T23:33:24.512Z,23.9
2019-05-01T23:36:33.478Z,23.9
2019-05-01T23:39:42.016Z,23.8
2019-05-01T23:42:52.528Z,23.8
2019-05-01T23:45:59.934Z,23.9
2019-05-01T23:49:06.251Z,23.8
2019-05-01T23:52:12.464Z,23.8
2019-05-01T23:55:18.680Z,23.8
2019-05-01T23:58:24.954Z,23.8
